Date,TemperatureHighF,TemperatureAvgF,TemperatureLowF,DewpointHighF,DewpointAvgF,DewpointLowF,HumidityHigh,HumidityAvg,HumidityLow,PressureMaxIn,PressureMinIn,WindSpeedMaxMPH,WindSpeedAvgMPH,GustSpeedMaxMPH,PrecipitationSumIn
2013-5-1,62.6,49.9,37.3,43.0,36.3,28.2,92,64,28,30.53,30.39,15,2,19,0.00
2013-5-2,67.1,55.4,44.5,46.0,41.9,35.3,89,63,38,30.51,30.33,15,2,21,0.00
2013-5-3,70.7,57.5,45.8,51.1,45.2,40.6,89,65,44,30.36,30.19,13,3,17,0.00
2013-5-4,76.7,63.8,51.3,52.4,46.4,37.6,81,56,25,30.20,29.96,19,3,23,0.00
2013-5-5,80.7,65.7,51.0,52.4,46.9,41.4,88,55,26,29.96,29.73,13,2,15,0.00
2013-5-6,83.8,66.7,51.9,54.1,49.0,42.6,89,58,27,29.82,29.71,11,1,15,0.00
2013-5-7,70.0,59.8,52.3,56.1,52.1,49.7,92,77,59,29.96,29.79,16,4,19,0.00
2013-5-8,62.7,56.4,52.3,55.9,51.3,49.3,91,83,70,30.11,29.96,12,2,17,0.00
2013-5-9,70.5,57.6,51.2,55.8,51.8,47.8,95,83,46,30.17,30.07,11,1,12,0.00
2013-5-10,76.2,60.2,50.8,56.1,52.1,49.2,95,77,44,30.16,30.06,6,1,11,0.00
2013-5-11,78.8,64.5,56.1,56.6,51.1,45.3,86,63,42,30.14,29.95,12,2,13,0.00
2013-5-12,68.9,62.8,59.0,58.3,56.4,53.2,94,80,66,30.06,29.99,18,5,22,0.01
2013-5-13,62.3,57.2,50.7,57.2,51.4,42.6,93,81,61,30.15,29.90,22,7,35,0.01
2013-5-14,60.9,54.2,48.1,47.9,44.3,40.3,86,71,47,30.19,30.08,10,3,16,0.00
2013-5-15,62.0,54.4,49.0,52.4,47.5,42.6,94,79,51,30.09,29.99,11,2,17,0.02
2013-5-16,68.7,59.6,53.9,53.5,51.9,46.8,95,77,47,29.99,29.83,9,1,14,0.01
2013-5-17,62.2,57.3,54.0,52.4,49.5,45.3,90,76,58,30.02,29.92,17,6,21,0.00
2013-5-18,60.3,56.3,52.7,49.9,48.0,45.9,88,74,62,30.23,30.03,13,3,19,0.00
2013-5-19,64.0,57.2,53.8,52.0,49.7,47.7,88,77,57,30.36,30.24,10,2,16,0.00
2013-5-20,65.2,55.3,48.3,52.8,49.2,46.5,95,81,62,30.31,29.86,10,2,14,0.00
2013-5-21,56.2,50.7,47.0,49.5,46.4,44.4,95,85,66,29.86,29.74,15,3,20,0.07
2013-5-22,53.1,48.8,45.1,47.7,45.5,43.0,96,89,77,29.90,29.82,13,4,16,0.01
2013-5-23,54.6,50.1,46.3,47.3,45.2,42.1,95,84,68,29.98,29.89,17,2,22,0.01
2013-5-24,61.4,53.7,48.3,50.6,47.1,44.8,95,80,55,30.02,29.94,14,3,19,0.01
2013-5-25,61.9,55.6,51.3,50.7,48.0,44.4,89,76,55,30.01,29.94,11,2,14,0.00
2013-5-26,62.2,55.7,51.0,54.5,51.3,48.9,96,86,70,29.96,29.91,11,1,20,0.01
2013-5-27,59.0,56.0,52.7,55.9,53.2,49.8,95,91,82,29.94,29.68,10,2,16,0.05
2013-5-28,60.5,56.3,53.0,52.5,50.4,48.1,93,81,69,29.85,29.74,21,6,24,0.00
2013-5-29,60.2,53.9,50.2,51.7,49.7,48.3,96,86,67,29.93,29.65,21,3,22,0.01
2013-5-30,59.5,54.4,50.0,49.4,47.4,45.9,88,78,63,30.11,29.93,18,9,27,0.00
2013-5-31,65.3,60.5,55.0,49.5,46.0,42.4,78,60,45,30.31,30.21,14,2,14,0.00